Time;durP1;ratioP1;P1;durP2;ratioP2;P2;SDS_P1;SDS_P2;PMS_P1;PMS_P2;Temp;Humidity;BMP_temperature;BMP_pressure;BME280_temperature;BME280_humidity;BME280_pressure;Samples;Min_cycle;Max_cycle;Signal;HPM_P1;HPM_P2
2021/05/15 00:00:53;;;;;;;468.25;305.15;;;;;;;;;;5048063;28;20052;-81
2021/05/15 00:03:19;;;;;;;462.80;298.33;;;;;;;;;;5054823;28;20017;-83
2021/05/15 00:05:45;;;;;;;463.50;297.20;;;;;;;;;;5054933;28;20060;-84
2021/05/15 00:08:12;;;;;;;460.83;289.10;;;;;;;;;;5030020;28;20489;-85
2021/05/15 00:10:38;;;;;;;460.95;292.38;;;;;;;;;;5033112;28;20029;-84
2021/05/15 00:13:04;;;;;;;462.25;294.48;;;;;;;;;;5026375;28;20032;-83
2021/05/15 00:15:30;;;;;;;458.85;289.40;;;;;;;;;;5032528;28;20074;-83
2021/05/15 00:21:00;;;;;;;464.40;302.02;;;;;;;;;;5029924;28;20053;-84
2021/05/15 00:23:26;;;;;;;460.83;294.33;;;;;;;;;;5036490;28;20018;-84
2021/05/15 00:25:52;;;;;;;459.92;294.83;;;;;;;;;;5036626;28;20078;-84
2021/05/15 00:28:18;;;;;;;464.77;302.10;;;;;;;;;;5054414;28;20104;-85
2021/05/15 00:30:44;;;;;;;462.80;301.45;;;;;;;;;;5049249;28;20045;-84
2021/05/15 00:33:10;;;;;;;458.58;293.50;;;;;;;;;;5068751;28;20025;-77
2021/05/15 00:35:36;;;;;;;461.80;295.80;;;;;;;;;;5054541;28;20021;-81
2021/05/15 00:38:02;;;;;;;457.58;289.40;;;;;;;;;;5036279;28;20500;-79
2021/05/15 00:40:28;;;;;;;460.80;295.15;;;;;;;;;;5029971;28;20037;-77
2021/05/15 00:42:54;;;;;;;463.40;301.40;;;;;;;;;;5016337;28;20037;-82
2021/05/15 00:45:20;;;;;;;459.77;291.92;;;;;;;;;;5031509;28;20554;-84
2021/05/15 00:47:46;;;;;;;470.38;306.83;;;;;;;;;;5049372;28;20033;-84
2021/05/15 00:50:15;;;;;;;458.98;294.65;;;;;;;;;;5033213;28;20028;-82
2021/05/15 00:52:41;;;;;;;462.40;300.08;;;;;;;;;;5036283;28;20116;-78
2021/05/15 00:55:09;;;;;;;463.85;302.85;;;;;;;;;;5032704;28;20037;-85
2021/05/15 00:57:35;;;;;;;460.75;294.77;;;;;;;;;;5020009;28;20053;-83
2021/05/15 01:00:01;;;;;;;467.58;306.30;;;;;;;;;;5023470;28;20047;-85
2021/05/15 01:02:27;;;;;;;466.20;307.67;;;;;;;;;;5031219;28;20033;-84
2021/05/15 01:04:53;;;;;;;465.42;309.05;;;;;;;;;;5033118;28;20028;-84
2021/05/15 01:07:19;;;;;;;462.70;303.30;;;;;;;;;;5039764;28;20396;-81
2021/05/15 01:09:45;;;;;;;462.88;303.92;;;;;;;;;;5049807;28;20021;-83
2021/05/15 01:12:12;;;;;;;466.95;311.98;;;;;;;;;;5032976;28;20029;-84
2021/05/15 01:14:39;;;;;;;466.73;308.48;;;;;;;;;;5050451;28;20021;-84
2021/05/15 01:17:08;;;;;;;464.83;304.80;;;;;;;;;;5032264;28;20063;-85
2021/05/15 01:19:34;;;;;;;463.17;303.88;;;;;;;;;;5032038;28;20036;-85
2021/05/15 01:22:00;;;;;;;465.83;311.13;;;;;;;;;;5016926;28;20022;-84
2021/05/15 01:24:26;;;;;;;479.40;305.30;;;;;;;;;;5050133;28;20358;-82
2021/05/15 01:26:52;;;;;;;468.60;307.92;;;;;;;;;;5031923;28;20058;-84
2021/05/15 01:29:18;;;;;;;462.05;302.27;;;;;;;;;;5032012;28;20020;-81
2021/05/15 01:31:44;;;;;;;461.90;300.65;;;;;;;;;;5049230;28;20025;-85
2021/05/15 01:34:10;;;;;;;460.13;299.05;;;;;;;;;;5035748;28;20032;-85
2021/05/15 01:36:40;;;;;;;469.33;308.52;;;;;;;;;;5053300;28;20541;-82
2021/05/15 01:39:10;;;;;;;457.15;295.45;;;;;;;;;;5035970;28;20485;-85
2021/05/15 01:41:36;;;;;;;463.30;305.58;;;;;;;;;;5035267;28;20063;-84
2021/05/15 01:44:03;;;;;;;463.10;304.30;;;;;;;;;;5027826;28;20036;-81
2021/05/15 01:46:29;;;;;;;463.70;302.30;;;;;;;;;;5052917;28;20158;-80
2021/05/15 01:48:55;;;;;;;483.92;309.17;;;;;;;;;;5052475;28;20049;-78
2021/05/15 01:51:21;;;;;;;502.70;317.67;;;;;;;;;;5035007;28;20428;-80
2021/05/15 01:53:49;;;;;;;510.83;318.17;;;;;;;;;;5052689;28;20028;-84
2021/05/15 01:56:16;;;;;;;513.20;320.38;;;;;;;;;;5032184;28;20053;-82
2021/05/15 01:58:42;;;;;;;515.78;318.85;;;;;;;;;;5029068;28;20029;-84
2021/05/15 02:01:08;;;;;;;523.65;326.38;;;;;;;;;;5030639;28;20552;-78
2021/05/15 02:03:35;;;;;;;509.55;308.80;;;;;;;;;;5017887;28;20401;-78
2021/05/15 02:06:01;;;;;;;488.75;308.17;;;;;;;;;;5031349;28;20044;-82
2021/05/15 02:08:27;;;;;;;477.15;302.92;;;;;;;;;;5031537;28;20029;-80
2021/05/15 02:10:56;;;;;;;471.95;300.10;;;;;;;;;;5049180;28;20053;-78
2021/05/15 02:13:22;;;;;;;470.45;299.02;;;;;;;;;;5053211;28;20504;-78
2021/05/15 02:15:50;;;;;;;470.63;296.67;;;;;;;;;;5052695;28;20037;-87
2021/05/15 02:18:16;;;;;;;474.58;303.27;;;;;;;;;;5034826;28;20029;-78
2021/05/15 02:20:43;;;;;;;471.98;301.08;;;;;;;;;;5031047;28;20027;-77
2021/05/15 02:23:10;;;;;;;468.50;296.13;;;;;;;;;;5034835;28;20028;-82
2021/05/15 02:25:37;;;;;;;468.38;299.70;;;;;;;;;;5052202;28;20037;-79
2021/05/15 02:28:03;;;;;;;465.55;299.35;;;;;;;;;;5034370;28;20032;-80
2021/05/15 02:30:32;;;;;;;460.13;293.20;;;;;;;;;;5022498;28;20030;-84
2021/05/15 02:32:58;;;;;;;461.38;302.58;;;;;;;;;;5028722;28;20117;-83
2021/05/15 02:35:29;;;;;;;460.92;295.33;;;;;;;;;;5048172;28;20047;-81
2021/05/15 02:37:59;;;;;;;461.85;300.75;;;;;;;;;;5034835;28;20017;-83
2021/05/15 02:40:25;;;;;;;;;;;;;;;;;;5035388;28;20036;-85
2021/05/15 02:42:52;;;;;;;458.40;291.50;;;;;;;;;;5035068;28;19904;-84
2021/05/15 02:45:19;;;;;;;465.30;308.25;;;;;;;;;;5027063;28;20064;-83
2021/05/15 02:47:45;;;;;;;457.08;291.55;;;;;;;;;;5034832;28;20031;-84
2021/05/15 02:50:12;;;;;;;460.40;306.08;;;;;;;;;;5027467;28;20033;-83
2021/05/15 02:52:38;;;;;;;459.23;301.48;;;;;;;;;;5032863;28;20026;-81
2021/05/15 02:55:05;;;;;;;454.70;294.30;;;;;;;;;;5038858;28;20040;-79
2021/05/15 02:57:31;;;;;;;460.05;298.20;;;;;;;;;;5034947;28;20025;-85
2021/05/15 02:59:57;;;;;;;456.38;298.95;;;;;;;;;;5034917;28;20025;-84
2021/05/15 03:02:23;;;;;;;459.67;305.40;;;;;;;;;;5033333;28;20029;-83
2021/05/15 03:04:49;;;;;;;469.23;307.52;;;;;;;;;;5034799;28;20029;-86
2021/05/15 03:07:15;;;;;;;458.92;302.83;;;;;;;;;;5034646;28;20400;-85
2021/05/15 03:09:43;;;;;;;459.13;306.98;;;;;;;;;;5034349;28;20119;-83
2021/05/15 03:12:09;;;;;;;458.80;307.40;;;;;;;;;;5028036;28;20025;-83
2021/05/15 03:14:35;;;;;;;454.88;299.95;;;;;;;;;;5019791;28;20047;-85
2021/05/15 03:17:01;;;;;;;457.02;305.42;;;;;;;;;;5035760;28;20024;-84
2021/05/15 03:19:27;;;;;;;456.10;300.77;;;;;;;;;;5038244;28;20469;-84
2021/05/15 03:21:53;;;;;;;451.70;297.80;;;;;;;;;;5062571;28;20029;-86
2021/05/15 03:24:19;;;;;;;456.00;298.85;;;;;;;;;;5057462;28;20062;-78
2021/05/15 03:26:45;;;;;;;456.42;304.98;;;;;;;;;;5041651;28;20087;-82
2021/05/15 03:29:11;;;;;;;456.05;301.55;;;;;;;;;;5055574;28;20025;-84
2021/05/15 03:31:37;;;;;;;456.80;303.80;;;;;;;;;;5036384;28;20036;-84
2021/05/15 03:34:03;;;;;;;454.23;298.63;;;;;;;;;;5038130;28;20032;-83
2021/05/15 03:36:29;;;;;;;455.50;301.38;;;;;;;;;;5037459;28;20025;-85
2021/05/15 03:38:55;;;;;;;461.23;303.63;;;;;;;;;;5038170;28;20071;-85
2021/05/15 03:41:21;;;;;;;456.55;300.95;;;;;;;;;;5037596;28;20483;-84
2021/05/15 03:43:47;;;;;;;455.45;300.40;;;;;;;;;;5055512;28;20029;-82
2021/05/15 03:46:13;;;;;;;456.70;303.33;;;;;;;;;;5037680;28;20025;-84
2021/05/15 03:48:39;;;;;;;456.70;305.23;;;;;;;;;;5055477;28;20481;-85
2021/05/15 03:51:05;;;;;;;457.05;301.42;;;;;;;;;;5036933;28;20031;-84
2021/05/15 03:53:31;;;;;;;457.77;302.77;;;;;;;;;;5019705;28;20021;-83
2021/05/15 03:55:57;;;;;;;454.10;300.88;;;;;;;;;;5038051;28;20072;-84
2021/05/15 03:58:23;;;;;;;455.65;299.52;;;;;;;;;;5054730;28;20376;-84
2021/05/15 04:00:49;;;;;;;457.83;306.02;;;;;;;;;;5036645;28;20028;-83
2021/05/15 04:03:15;;;;;;;452.25;297.80;;;;;;;;;;5036864;28;20025;-83
2021/05/15 04:05:41;;;;;;;454.63;301.20;;;;;;;;;;5036455;28;20036;-82
2021/05/15 04:08:07;;;;;;;455.48;301.85;;;;;;;;;;5054490;28;20496;-80
2021/05/15 04:10:33;;;;;;;452.15;294.50;;;;;;;;;;5036936;28;20427;-78
2021/05/15 04:13:06;;;;;;;457.52;308.52;;;;;;;;;;5037459;28;20432;-79
2021/05/15 04:18:08;;;;;;;454.70;290.60;;;;;;;;;;5053841;28;20434;-78
2021/05/15 04:20:35;;;;;;;453.33;294.70;;;;;;;;;;5048415;28;20052;-77
2021/05/15 04:23:03;;;;;;;453.27;296.65;;;;;;;;;;5033803;28;20032;-81
2021/05/15 04:25:29;;;;;;;452.58;293.77;;;;;;;;;;5033180;28;20082;-81
2021/05/15 04:27:56;;;;;;;451.10;290.65;;;;;;;;;;5051553;28;20024;-81
2021/05/15 04:30:23;;;;;;;454.25;295.15;;;;;;;;;;5044499;28;20484;-83
2021/05/15 04:32:49;;;;;;;454.30;296.92;;;;;;;;;;5036047;28;20030;-77
2021/05/15 04:35:15;;;;;;;453.75;293.65;;;;;;;;;;5016556;28;20036;-80
2021/05/15 04:37:41;;;;;;;453.60;292.17;;;;;;;;;;5035546;28;20365;-82
2021/05/15 04:40:08;;;;;;;453.13;289.98;;;;;;;;;;5035709;28;20028;-77
2021/05/15 04:42:36;;;;;;;460.67;302.10;;;;;;;;;;5045454;28;20021;-75
2021/05/15 04:45:02;;;;;;;452.40;290.67;;;;;;;;;;5036382;28;20032;-79
2021/05/15 04:47:28;;;;;;;458.55;301.73;;;;;;;;;;5045464;28;20065;-77
2021/05/15 04:49:54;;;;;;;457.48;295.83;;;;;;;;;;5042317;28;20507;-78
2021/05/15 04:52:20;;;;;;;461.77;305.02;;;;;;;;;;5035902;28;20476;-78
2021/05/15 04:54:46;;;;;;;456.00;292.52;;;;;;;;;;5033523;28;20593;-77
2021/05/15 04:57:12;;;;;;;457.38;294.27;;;;;;;;;;5034017;28;20032;-77
2021/05/15 04:59:38;;;;;;;454.40;293.48;;;;;;;;;;5035088;28;20035;-74
2021/05/15 05:02:04;;;;;;;460.60;305.15;;;;;;;;;;5024684;28;20025;-77
2021/05/15 05:04:30;;;;;;;454.88;289.90;;;;;;;;;;5031599;28;20029;-78
2021/05/15 05:06:56;;;;;;;461.13;296.75;;;;;;;;;;5048237;28;20033;-76
2021/05/15 05:09:22;;;;;;;454.95;291.38;;;;;;;;;;5031973;28;20021;-82
2021/05/15 05:11:48;;;;;;;458.30;297.42;;;;;;;;;;5032792;28;20029;-81
2021/05/15 05:14:15;;;;;;;455.70;292.30;;;;;;;;;;5018680;28;20112;-76
2021/05/15 05:16:41;;;;;;;456.75;294.75;;;;;;;;;;5031893;28;20029;-75
2021/05/15 05:19:09;;;;;;;461.73;301.40;;;;;;;;;;5049431;28;20474;-76
2021/05/15 05:21:35;;;;;;;455.63;286.85;;;;;;;;;;5030704;28;20053;-75
2021/05/15 05:24:01;;;;;;;462.00;301.67;;;;;;;;;;5035229;28;20063;-75
2021/05/15 05:26:27;;;;;;;465.35;308.33;;;;;;;;;;5053073;28;20032;-76
2021/05/15 05:28:53;;;;;;;466.02;299.60;;;;;;;;;;5035142;28;20063;-77
2021/05/15 05:31:19;;;;;;;459.67;293.88;;;;;;;;;;5033739;28;20699;-75
2021/05/15 05:33:46;;;;;;;463.38;303.50;;;;;;;;;;5037869;28;20504;-75
2021/05/15 05:36:12;;;;;;;457.67;295.88;;;;;;;;;;5025328;28;20477;-76
2021/05/15 05:38:38;;;;;;;455.13;291.02;;;;;;;;;;5033947;28;20035;-77
2021/05/15 05:41:04;;;;;;;451.00;291.92;;;;;;;;;;5021907;28;20025;-76
2021/05/15 05:43:30;;;;;;;450.75;292.40;;;;;;;;;;5046327;28;20367;-78
2021/05/15 05:45:56;;;;;;;452.95;292.38;;;;;;;;;;5022587;28;20033;-75
2021/05/15 05:48:22;;;;;;;448.83;286.27;;;;;;;;;;5034220;28;20037;-77
2021/05/15 05:50:48;;;;;;;448.10;287.15;;;;;;;;;;5052047;28;20040;-78
2021/05/15 05:53:14;;;;;;;448.98;289.85;;;;;;;;;;5033904;28;20027;-81
2021/05/15 05:55:40;;;;;;;458.20;305.40;;;;;;;;;;5030530;28;20046;-81
2021/05/15 05:58:06;;;;;;;450.85;295.80;;;;;;;;;;5028061;28;20029;-82
2021/05/15 06:00:33;;;;;;;449.83;288.27;;;;;;;;;;5034377;28;20028;-79
2021/05/15 06:02:59;;;;;;;452.90;299.95;;;;;;;;;;5032436;28;20465;-79
2021/05/15 06:05:25;;;;;;;450.83;292.52;;;;;;;;;;5034376;28;20106;-77
2021/05/15 06:07:51;;;;;;;454.38;299.90;;;;;;;;;;5034588;28;20029;-79
2021/05/15 06:10:18;;;;;;;456.02;298.48;;;;;;;;;;5042135;28;20473;-79
2021/05/15 06:12:44;;;;;;;453.15;298.73;;;;;;;;;;5034216;28;20051;-80
2021/05/15 06:15:10;;;;;;;454.40;300.63;;;;;;;;;;5034432;28;20029;-82
2021/05/15 06:17:36;;;;;;;458.08;309.08;;;;;;;;;;5027510;28;20119;-84
2021/05/15 06:20:03;;;;;;;455.30;302.17;;;;;;;;;;5035153;28;20115;-79
2021/05/15 06:22:29;;;;;;;458.75;309.73;;;;;;;;;;5027509;28;20350;-79
2021/05/15 06:24:55;;;;;;;457.02;306.15;;;;;;;;;;5033480;28;20032;-79
2021/05/15 06:27:21;;;;;;;455.85;304.15;;;;;;;;;;5017391;28;20429;-79
2021/05/15 06:29:47;;;;;;;450.42;295.35;;;;;;;;;;5034256;28;20047;-81
2021/05/15 06:32:13;;;;;;;453.50;296.52;;;;;;;;;;5031163;28;20530;-81
2021/05/15 06:34:39;;;;;;;455.33;303.75;;;;;;;;;;5034109;28;20026;-81
2021/05/15 06:37:05;;;;;;;454.23;301.52;;;;;;;;;;5052492;28;20025;-82
2021/05/15 06:39:31;;;;;;;454.27;297.90;;;;;;;;;;5033318;28;20134;-83
2021/05/15 06:41:57;;;;;;;457.10;301.95;;;;;;;;;;5029907;28;20028;-83
2021/05/15 06:44:23;;;;;;;458.65;309.48;;;;;;;;;;5052479;28;20021;-84
2021/05/15 06:46:49;;;;;;;456.63;303.70;;;;;;;;;;5052472;28;20082;-83
2021/05/15 06:49:15;;;;;;;456.83;299.10;;;;;;;;;;5034771;28;20036;-85
2021/05/15 06:51:41;;;;;;;459.85;310.13;;;;;;;;;;5023204;28;20036;-86
2021/05/15 06:54:07;;;;;;;460.33;307.85;;;;;;;;;;5025630;28;20030;-86
2021/05/15 06:56:33;;;;;;;458.80;308.95;;;;;;;;;;5027486;28;20059;-84
2021/05/15 06:58:59;;;;;;;458.70;308.33;;;;;;;;;;5027102;28;20017;-87
2021/05/15 07:01:26;;;;;;;458.52;303.30;;;;;;;;;;5031272;28;20025;-86
2021/05/15 07:03:52;;;;;;;457.88;302.33;;;;;;;;;;5047394;28;20027;-87
2021/05/15 07:06:17;;;;;;;462.73;309.30;;;;;;;;;;5037703;28;20036;-86
2021/05/15 07:08:44;;;;;;;459.60;306.50;;;;;;;;;;5038011;28;20468;-86
2021/05/15 07:11:09;;;;;;;466.70;313.33;;;;;;;;;;5029876;28;20127;-92
2021/05/15 07:13:35;;;;;;;467.48;316.88;;;;;;;;;;5027116;28;20060;-83
2021/05/15 07:16:01;;;;;;;465.65;315.50;;;;;;;;;;5038339;28;20037;-90
2021/05/15 07:18:27;;;;;;;471.20;321.67;;;;;;;;;;5038008;28;20154;-87
2021/05/15 07:20:53;;;;;;;474.00;313.95;;;;;;;;;;5035521;28;20472;-89
2021/05/15 07:23:19;;;;;;;472.55;315.60;;;;;;;;;;5038253;28;20443;-87
2021/05/15 07:25:45;;;;;;;481.80;320.13;;;;;;;;;;5037687;28;20059;-88
2021/05/15 07:28:11;;;;;;;483.33;328.30;;;;;;;;;;5035526;28;20620;-91
2021/05/15 07:30:37;;;;;;;474.83;317.10;;;;;;;;;;5036445;28;20130;-87
2021/05/15 07:33:03;;;;;;;471.73;316.35;;;;;;;;;;5028615;28;20037;-83
2021/05/15 07:35:29;;;;;;;467.60;319.00;;;;;;;;;;5045030;28;20021;-84
2021/05/15 07:37:56;;;;;;;465.80;315.10;;;;;;;;;;5037946;28;20048;-87
2021/05/15 07:40:22;;;;;;;466.42;315.05;;;;;;;;;;5037185;28;20021;-85
2021/05/15 07:42:48;;;;;;;466.85;312.48;;;;;;;;;;5038002;28;20021;-84
2021/05/15 07:45:14;;;;;;;463.30;313.17;;;;;;;;;;5037519;28;20377;-82
2021/05/15 07:47:42;;;;;;;469.30;317.42;;;;;;;;;;5037867;28;20488;-89
2021/05/15 07:50:09;;;;;;;463.58;314.08;;;;;;;;;;5034385;28;20040;-85
2021/05/15 07:52:35;;;;;;;465.13;316.50;;;;;;;;;;5030316;28;20029;-87
2021/05/15 07:55:01;;;;;;;465.83;320.20;;;;;;;;;;5036980;28;20056;-84
2021/05/15 07:57:27;;;;;;;468.65;319.42;;;;;;;;;;5055837;28;20017;-84
2021/05/15 07:59:53;;;;;;;469.10;320.95;;;;;;;;;;5031192;28;20028;-87
2021/05/15 08:02:21;;;;;;;468.13;317.65;;;;;;;;;;5036173;28;20025;-83
2021/05/15 08:04:47;;;;;;;468.83;320.75;;;;;;;;;;5037554;28;20048;-85
2021/05/15 08:07:13;;;;;;;471.55;326.80;;;;;;;;;;5037630;28;20025;-85
2021/05/15 08:09:39;;;;;;;466.25;320.50;;;;;;;;;;5037542;28;20377;-84
2021/05/15 08:12:05;;;;;;;465.08;317.90;;;;;;;;;;5024071;28;20029;-84
2021/05/15 08:14:31;;;;;;;467.58;319.70;;;;;;;;;;5032034;28;20021;-82
2021/05/15 08:16:57;;;;;;;467.73;319.17;;;;;;;;;;5036779;28;20439;-83
2021/05/15 08:19:23;;;;;;;469.88;321.20;;;;;;;;;;5036954;28;20013;-85
2021/05/15 08:21:49;;;;;;;467.92;320.77;;;;;;;;;;5036347;28;20018;-82
2021/05/15 08:24:15;;;;;;;467.52;321.25;;;;;;;;;;5036598;28;20017;-84
2021/05/15 08:26:44;;;;;;;477.95;332.45;;;;;;;;;;5054454;28;20017;-84
2021/05/15 08:29:12;;;;;;;473.27;331.20;;;;;;;;;;5020887;28;20033;-85
2021/05/15 08:31:38;;;;;;;478.58;331.42;;;;;;;;;;5035472;28;20025;-85
2021/05/15 08:34:04;;;;;;;477.58;331.02;;;;;;;;;;5036691;28;20035;-84
2021/05/15 08:36:30;;;;;;;478.05;333.55;;;;;;;;;;5036235;28;20055;-81
2021/05/15 08:38:57;;;;;;;478.10;327.35;;;;;;;;;;5030589;28;20025;-85
2021/05/15 08:41:23;;;;;;;481.27;327.30;;;;;;;;;;5050550;28;20029;-81
2021/05/15 08:43:49;;;;;;;481.45;329.17;;;;;;;;;;5036371;28;20025;-80
2021/05/15 08:46:16;;;;;;;480.63;329.20;;;;;;;;;;5026347;28;20028;-79
2021/05/15 08:48:43;;;;;;;481.98;330.92;;;;;;;;;;5016677;28;20495;-81
2021/05/15 08:51:10;;;;;;;487.02;337.60;;;;;;;;;;5016417;28;20025;-82
2021/05/15 08:53:37;;;;;;;501.45;341.52;;;;;;;;;;5016324;28;20033;-81
2021/05/15 08:56:03;;;;;;;496.48;337.75;;;;;;;;;;5016297;28;20132;-85
2021/05/15 08:58:29;;;;;;;502.73;336.83;;;;;;;;;;5025527;28;20035;-82
2021/05/15 09:00:55;;;;;;;504.88;342.45;;;;;;;;;;5016362;28;20037;-82
2021/05/15 09:03:21;;;;;;;512.05;344.45;;;;;;;;;;5050356;28;20021;-84
2021/05/15 09:05:52;;;;;;;510.70;344.88;;;;;;;;;;5028355;28;20024;-79
2021/05/15 09:08:18;;;;;;;;;;;;;;;;;;5035612;28;20108;-79
2021/05/15 09:10:45;;;;;;;511.40;329.48;;;;;;;;;;5053848;28;20546;-82
2021/05/15 09:13:14;;;;;;;514.03;335.50;;;;;;;;;;5035267;28;20032;-84
2021/05/15 09:15:42;;;;;;;530.05;351.08;;;;;;;;;;5034565;28;20029;-84
2021/05/15 09:18:08;;;;;;;529.90;350.45;;;;;;;;;;5034643;28;20048;-81
2021/05/15 09:20:37;;;;;;;539.28;359.75;;;;;;;;;;5035058;28;20112;-80
2021/05/15 09:23:15;;;;;;;535.08;369.15;;;;;;;;;;5035432;28;20050;-83
2021/05/15 09:25:42;;;;;;;548.58;386.05;;;;;;;;;;5035118;28;20074;-79
2021/05/15 09:28:08;;;;;;;528.17;381.40;;;;;;;;;;5035353;28;20723;-79
2021/05/15 09:30:34;;;;;;;533.97;387.60;;;;;;;;;;5035054;28;20021;-79
2021/05/15 09:33:14;;;;;;;539.22;385.88;;;;;;;;;;5026095;28;20048;-79
2021/05/15 09:35:40;;;;;;;526.22;375.23;;;;;;;;;;5043224;28;20036;-82
2021/05/15 09:38:06;;;;;;;523.38;377.98;;;;;;;;;;5044914;28;20024;-84
2021/05/15 09:40:32;;;;;;;499.83;356.65;;;;;;;;;;5035186;28;20017;-84
2021/05/15 09:43:00;;;;;;;505.92;354.60;;;;;;;;;;5053501;28;20380;-86
2021/05/15 09:45:30;;;;;;;503.33;354.33;;;;;;;;;;5035178;28;20036;-80
2021/05/15 09:48:00;;;;;;;502.35;352.23;;;;;;;;;;5045689;28;20116;-80
2021/05/15 09:50:28;;;;;;;501.77;353.23;;;;;;;;;;5031836;28;20403;-84
2021/05/15 09:53:05;;;;;;;502.10;355.80;;;;;;;;;;5031727;28;20056;-82
2021/05/15 09:55:31;;;;;;;502.15;356.40;;;;;;;;;;5033590;28;20045;-80
2021/05/15 09:57:57;;;;;;;502.58;356.33;;;;;;;;;;5015332;28;20411;-81
2021/05/15 10:00:23;;;;;;;503.08;361.70;;;;;;;;;;5021637;28;20502;-81
2021/05/15 10:02:53;;;;;;;502.63;361.77;;;;;;;;;;5033565;28;20060;-84
2021/05/15 10:05:20;;;;;;;499.38;361.55;;;;;;;;;;5042106;28;20099;-80
2021/05/15 10:07:46;;;;;;;504.20;364.17;;;;;;;;;;5025507;28;20031;-81
2021/05/15 10:10:12;;;;;;;498.55;364.42;;;;;;;;;;5030745;28;20495;-84
2021/05/15 10:12:38;;;;;;;501.35;371.15;;;;;;;;;;5033847;28;20033;-82
2021/05/15 10:15:07;;;;;;;508.00;383.30;;;;;;;;;;5032638;28;20055;-83
2021/05/15 10:17:37;;;;;;;505.52;387.00;;;;;;;;;;5032497;28;20032;-79
2021/05/15 10:20:07;;;;;;;501.70;383.98;;;;;;;;;;5034562;28;20035;-81
2021/05/15 10:22:44;;;;;;;501.67;379.83;;;;;;;;;;5034884;28;20029;-79
2021/05/15 10:25:14;;;;;;;500.90;379.60;;;;;;;;;;5034692;28;20029;-82
2021/05/15 10:27:40;;;;;;;503.23;395.30;;;;;;;;;;5038785;28;20033;-83
2021/05/15 10:30:14;;;;;;;506.63;414.15;;;;;;;;;;5021265;28;20496;-84
2021/05/15 10:32:54;;;;;;;511.30;447.83;;;;;;;;;;5055494;28;20049;-85
2021/05/15 10:35:33;;;;;;;519.75;462.42;;;;;;;;;;5038944;28;20029;-81
2021/05/15 10:38:04;;;;;;;531.95;474.35;;;;;;;;;;5054784;28;20051;-86
2021/05/15 10:40:31;;;;;;;544.63;486.92;;;;;;;;;;5038943;28;20529;-86
2021/05/15 10:42:58;;;;;;;552.67;494.38;;;;;;;;;;5035972;28;20558;-86
2021/05/15 10:45:43;;;;;;;542.88;485.48;;;;;;;;;;5037782;28;20030;-83
2021/05/15 10:48:25;;;;;;;532.90;475.30;;;;;;;;;;5055617;28;20032;-84
2021/05/15 10:51:01;;;;;;;522.92;457.88;;;;;;;;;;5052557;28;20064;-86
2021/05/15 10:53:28;;;;;;;513.63;445.67;;;;;;;;;;5038280;28;20032;-86
2021/05/15 10:56:02;;;;;;;504.65;427.30;;;;;;;;;;5048035;28;20135;-83
2021/05/15 10:58:38;;;;;;;502.90;418.23;;;;;;;;;;5049239;28;20029;-82
2021/05/15 11:01:13;;;;;;;502.42;412.50;;;;;;;;;;5036748;28;20060;-82
2021/05/15 11:03:40;;;;;;;501.52;411.92;;;;;;;;;;5028519;28;20496;-84
2021/05/15 11:06:13;;;;;;;501.10;412.13;;;;;;;;;;5035307;28;20389;-84
2021/05/15 11:08:40;;;;;;;502.23;409.63;;;;;;;;;;5048249;28;20037;-85
2021/05/15 11:11:09;;;;;;;500.77;413.10;;;;;;;;;;5036687;28;20025;-81
2021/05/15 11:13:45;;;;;;;505.45;416.52;;;;;;;;;;5036671;28;20024;-80
2021/05/15 11:16:11;;;;;;;500.27;420.00;;;;;;;;;;5028726;28;20087;-80
2021/05/15 11:18:37;;;;;;;502.48;438.05;;;;;;;;;;5036757;28;20507;-84
2021/05/15 11:21:07;;;;;;;517.20;460.85;;;;;;;;;;5052093;28;20021;-82
2021/05/15 11:23:43;;;;;;;521.80;465.77;;;;;;;;;;5055841;28;20759;-81
2021/05/15 11:26:12;;;;;;;548.95;492.10;;;;;;;;;;5032560;28;20025;-82
2021/05/15 11:28:38;;;;;;;554.25;497.48;;;;;;;;;;5033628;28;20034;-83
2021/05/15 11:31:08;;;;;;;562.70;505.75;;;;;;;;;;5032963;28;20036;-82
2021/05/15 11:33:34;;;;;;;539.50;482.77;;;;;;;;;;5037503;28;20074;-80
2021/05/15 11:36:00;;;;;;;529.42;472.67;;;;;;;;;;5054816;28;20036;-78
2021/05/15 11:38:27;;;;;;;519.13;462.52;;;;;;;;;;5036021;28;20386;-80
2021/05/15 11:40:57;;;;;;;510.45;453.00;;;;;;;;;;5036617;28;20017;-80
2021/05/15 11:43:25;;;;;;;506.50;450.23;;;;;;;;;;5033065;28;20491;-84
2021/05/15 11:45:52;;;;;;;509.73;453.52;;;;;;;;;;5029302;28;20040;-81
2021/05/15 11:48:20;;;;;;;506.00;447.92;;;;;;;;;;5032763;28;20029;-80
2021/05/15 11:51:02;;;;;;;511.13;445.75;;;;;;;;;;5029090;28;20029;-82
2021/05/15 11:53:28;;;;;;;512.30;433.25;;;;;;;;;;5029559;28;20025;-81
2021/05/15 11:55:55;;;;;;;502.98;430.70;;;;;;;;;;5051122;28;20037;-78
2021/05/15 11:58:21;;;;;;;502.30;433.50;;;;;;;;;;5034023;28;20037;-80
2021/05/15 12:00:47;;;;;;;501.15;436.17;;;;;;;;;;5033348;28;20025;-81
2021/05/15 12:03:19;;;;;;;499.13;437.48;;;;;;;;;;5050155;28;20017;-83
2021/05/15 12:05:46;;;;;;;496.67;433.30;;;;;;;;;;5029430;28;20028;-83
2021/05/15 12:08:14;;;;;;;503.45;447.77;;;;;;;;;;5024128;28;20029;-83
2021/05/15 12:10:40;;;;;;;496.48;429.77;;;;;;;;;;5027304;28;20116;-83
2021/05/15 12:13:07;;;;;;;493.52;421.38;;;;;;;;;;5028432;28;20029;-78
2021/05/15 12:15:33;;;;;;;490.38;409.02;;;;;;;;;;5043821;28;20030;-81
2021/05/15 12:18:00;;;;;;;493.52;403.10;;;;;;;;;;5014775;28;20045;-81
2021/05/15 12:20:34;;;;;;;488.65;398.27;;;;;;;;;;5034684;28;20429;-81
2021/05/15 12:23:07;;;;;;;489.35;394.33;;;;;;;;;;5033102;28;20034;-81
2021/05/15 12:25:34;;;;;;;489.02;390.92;;;;;;;;;;5032616;28;20376;-82
2021/05/15 12:28:00;;;;;;;487.50;398.95;;;;;;;;;;5026166;28;20413;-82
2021/05/15 12:30:26;;;;;;;487.52;393.60;;;;;;;;;;5032608;28;20036;-82
2021/05/15 12:33:05;;;;;;;488.67;391.05;;;;;;;;;;5031823;28;20221;-80
2021/05/15 12:35:31;;;;;;;491.17;390.70;;;;;;;;;;5023215;28;20025;-82
2021/05/15 12:37:58;;;;;;;490.58;393.90;;;;;;;;;;5034069;28;20080;-81
2021/05/15 12:40:30;;;;;;;486.30;385.42;;;;;;;;;;5031875;28;20484;-83
2021/05/15 12:43:11;;;;;;;489.95;395.95;;;;;;;;;;5051143;28;20066;-81
2021/05/15 12:45:41;;;;;;;487.73;390.27;;;;;;;;;;5033507;28;20037;-83
2021/05/15 12:48:08;;;;;;;488.02;384.60;;;;;;;;;;5051214;28;20029;-81
2021/05/15 12:50:37;;;;;;;489.40;390.60;;;;;;;;;;5049989;28;20108;-81
2021/05/15 12:53:07;;;;;;;489.60;387.20;;;;;;;;;;5033051;28;20060;-82
2021/05/15 12:55:33;;;;;;;487.13;389.85;;;;;;;;;;5051596;28;20123;-81
2021/05/15 12:57:59;;;;;;;486.00;382.73;;;;;;;;;;5033344;28;20103;-82
2021/05/15 13:00:26;;;;;;;484.15;378.10;;;;;;;;;;5034635;28;20029;-80
2021/05/15 13:03:09;;;;;;;487.10;377.90;;;;;;;;;;5029742;28;20469;-81
2021/05/15 13:05:36;;;;;;;483.73;370.63;;;;;;;;;;5010715;28;20103;-82
2021/05/15 13:08:11;;;;;;;481.63;361.63;;;;;;;;;;5032650;28;20086;-77
2021/05/15 13:10:38;;;;;;;475.88;351.90;;;;;;;;;;4988870;28;20046;-80
2021/05/15 13:13:04;;;;;;;475.23;347.85;;;;;;;;;;4991788;28;20117;-76
2021/05/15 13:15:31;;;;;;;470.77;340.35;;;;;;;;;;4974315;28;20043;-77
2021/05/15 13:18:16;;;;;;;469.92;340.40;;;;;;;;;;4973448;28;20019;-76
2021/05/15 13:20:42;;;;;;;471.30;337.45;;;;;;;;;;4975207;28;20034;-78
2021/05/15 13:23:08;;;;;;;470.73;334.42;;;;;;;;;;4975391;28;20026;-76
2021/05/15 13:25:34;;;;;;;473.83;340.95;;;;;;;;;;4990897;28;20066;-80
2021/05/15 13:28:00;;;;;;;467.23;324.15;;;;;;;;;;4974223;28;20030;-75
2021/05/15 13:30:26;;;;;;;471.27;331.25;;;;;;;;;;4974497;28;20423;-78
2021/05/15 13:32:52;;;;;;;474.10;335.88;;;;;;;;;;4973347;28;20457;-76
2021/05/15 13:35:18;;;;;;;475.48;337.15;;;;;;;;;;4977491;28;20033;-79
2021/05/15 13:37:44;;;;;;;475.45;333.77;;;;;;;;;;4974812;28;20542;-80
2021/05/15 13:40:11;;;;;;;476.75;338.48;;;;;;;;;;4974810;28;20033;-81
2021/05/15 13:42:37;;;;;;;482.38;348.67;;;;;;;;;;5029599;28;20090;-79
2021/05/15 13:45:07;;;;;;;484.02;356.17;;;;;;;;;;5033452;28;20021;-78
2021/05/15 13:47:33;;;;;;;490.42;367.67;;;;;;;;;;5035393;28;20025;-78
2021/05/15 13:49:59;;;;;;;485.75;371.75;;;;;;;;;;5053408;28;20032;-78
2021/05/15 13:52:27;;;;;;;490.30;381.25;;;;;;;;;;5034879;28;20108;-78
2021/05/15 13:54:53;;;;;;;499.92;394.88;;;;;;;;;;4997296;28;20037;-80
2021/05/15 13:57:19;;;;;;;495.70;405.50;;;;;;;;;;5030488;28;20071;-80
2021/05/15 13:59:45;;;;;;;505.83;427.50;;;;;;;;;;5035159;28;20111;-79